createdAt,value
2018-03-27T00:01:02.105Z,67.45
2018-03-27T00:03:31.136Z,65.60
2018-03-27T00:06:00.678Z,72.25
2018-03-27T00:08:28.945Z,65.95
2018-03-27T00:10:57.234Z,70.78
2018-03-27T00:13:25.552Z,67.60
2018-03-27T00:15:53.847Z,67.00
2018-03-27T00:18:22.988Z,66.93
2018-03-27T00:20:51.259Z,73.07
2018-03-27T00:23:19.529Z,64.32
2018-03-27T00:25:47.923Z,74.05
2018-03-27T00:28:34.856Z,65.82
2018-03-27T00:31:21.157Z,62.00
2018-03-27T00:34:07.246Z,60.25
2018-03-27T00:36:53.249Z,64.45
2018-03-27T00:39:39.312Z,63.87
2018-03-27T00:45:40.482Z,57.97
2018-03-27T00:48:08.777Z,61.25
2018-03-27T00:50:37.034Z,61.95
2018-03-27T00:53:06.077Z,62.05
2018-03-27T00:55:34.331Z,66.15
2018-03-27T00:58:02.622Z,66.25
2018-03-27T01:00:30.899Z,66.75
2018-03-27T01:02:59.219Z,59.28
2018-03-27T01:05:28.246Z,71.55
2018-03-27T01:07:56.512Z,62.53
2018-03-27T01:10:24.803Z,62.90
2018-03-27T01:12:53.063Z,55.88
2018-03-27T01:15:21.496Z,60.60
2018-03-27T01:17:50.529Z,59.40
2018-03-27T01:20:19.546Z,56.95
2018-03-27T01:22:47.910Z,54.15
2018-03-27T01:25:16.210Z,56.88
2018-03-27T01:27:44.478Z,53.67
2018-03-27T01:30:12.759Z,61.40
2018-03-27T01:32:41.036Z,61.37
2018-03-27T01:35:09.351Z,55.70
2018-03-27T01:37:38.391Z,51.53
2018-03-27T01:40:06.667Z,57.92
2018-03-27T01:42:35.052Z,54.80
2018-03-27T01:45:03.319Z,53.33
2018-03-27T01:47:31.594Z,50.20
2018-03-27T01:49:59.972Z,50.50
2018-03-27T01:52:28.240Z,52.90
2018-03-27T01:54:56.509Z,54.13
2018-03-27T01:57:24.766Z,55.00
2018-03-27T01:59:53.083Z,50.12
2018-03-27T02:02:21.338Z,53.85
2018-03-27T02:04:49.626Z,43.25
2018-03-27T02:07:17.905Z,47.75
2018-03-27T02:09:46.234Z,49.72
2018-03-27T02:12:20.888Z,46.13
2018-03-27T02:14:54.646Z,46.65
2018-03-27T02:17:30.130Z,43.00
2018-03-27T02:20:03.907Z,43.90
2018-03-27T02:22:32.966Z,35.70
2018-03-27T02:25:01.226Z,36.53
2018-03-27T02:27:29.493Z,45.00
2018-03-27T02:29:57.762Z,39.85
2018-03-27T02:32:26.038Z,37.17
2018-03-27T02:34:54.312Z,43.03
2018-03-27T02:37:22.575Z,37.22
2018-03-27T02:39:50.835Z,34.55
2018-03-27T02:42:19.147Z,30.15
2018-03-27T02:44:48.232Z,34.60
2018-03-27T02:47:16.519Z,30.55
2018-03-27T02:49:44.797Z,30.12
2018-03-27T02:52:13.093Z,30.35
2018-03-27T02:54:41.384Z,29.40
2018-03-27T02:57:09.665Z,26.98
2018-03-27T02:59:38.823Z,30.08
2018-03-27T03:02:07.108Z,25.40
2018-03-27T03:04:35.406Z,26.10
2018-03-27T03:07:03.671Z,25.23
2018-03-27T03:09:32.032Z,28.42
2018-03-27T03:12:00.369Z,28.35
2018-03-27T03:14:28.649Z,31.20
2018-03-27T03:16:56.928Z,24.55
2018-03-27T03:19:25.224Z,24.90
2018-03-27T03:21:53.540Z,24.48
2018-03-27T03:24:22.573Z,27.67
2018-03-27T03:26:50.944Z,26.90
2018-03-27T03:29:19.234Z,26.45
2018-03-27T03:31:47.518Z,22.85
2018-03-27T03:34:15.843Z,25.73
2018-03-27T03:36:44.991Z,31.10
2018-03-27T03:39:13.277Z,28.67
2018-03-27T03:41:43.036Z,33.10
2018-03-27T03:44:11.329Z,32.13
2018-03-27T03:46:39.587Z,37.95
2018-03-27T03:49:07.962Z,27.75
2018-03-27T03:51:36.999Z,34.30
2018-03-27T03:54:05.263Z,35.33
2018-03-27T03:56:33.586Z,35.25
2018-03-27T03:59:02.634Z,27.73
2018-03-27T04:01:30.985Z,24.60
2018-03-27T04:03:59.254Z,22.95
2018-03-27T04:06:27.642Z,21.33
2018-03-27T04:08:56.479Z,21.15
2018-03-27T04:11:24.776Z,20.23
2018-03-27T04:13:53.047Z,22.15
2018-03-27T04:16:21.309Z,24.55
2018-03-27T04:18:49.565Z,29.63
2018-03-27T04:21:17.857Z,23.10
2018-03-27T04:23:46.115Z,24.77
2018-03-27T04:26:14.386Z,25.30
2018-03-27T04:28:42.675Z,30.95
2018-03-27T04:31:10.939Z,36.42
2018-03-27T04:33:39.241Z,31.60
2018-03-27T04:36:07.488Z,37.10
2018-03-27T04:38:36.047Z,39.63
2018-03-27T04:41:04.539Z,48.47
2018-03-27T04:43:33.343Z,42.60
2018-03-27T04:46:01.622Z,50.67
2018-03-27T04:48:29.912Z,54.22
2018-03-27T04:50:58.320Z,60.60
2018-03-27T04:53:26.718Z,66.37
2018-03-27T04:55:55.072Z,66.00
2018-03-27T04:58:23.341Z,63.75
2018-03-27T05:00:52.470Z,68.72
2018-03-27T05:03:20.787Z,73.87
2018-03-27T05:05:49.049Z,78.53
2018-03-27T05:08:17.323Z,80.32
2018-03-27T05:10:45.629Z,81.15
2018-03-27T05:13:14.786Z,96.68
2018-03-27T05:15:43.047Z,97.35
2018-03-27T05:18:11.338Z,97.85
2018-03-27T05:20:39.607Z,95.00
2018-03-27T05:23:07.882Z,89.53
2018-03-27T05:25:36.175Z,91.65
2018-03-27T05:28:04.470Z,99.95
2018-03-27T05:30:33.535Z,88.32
2018-03-27T05:33:01.798Z,83.07
2018-03-27T05:35:30.099Z,65.20
2018-03-27T05:37:58.375Z,66.40
2018-03-27T05:40:26.710Z,61.28
2018-03-27T05:42:55.012Z,64.53
2018-03-27T05:45:23.277Z,75.50
2018-03-27T05:47:51.626Z,67.90
2018-03-27T05:50:19.921Z,70.30
2018-03-27T05:52:48.267Z,71.57
2018-03-27T05:55:16.734Z,75.75
2018-03-27T05:57:45.807Z,72.25
2018-03-27T06:00:14.066Z,75.30
2018-03-27T06:02:42.511Z,77.75
2018-03-27T06:05:10.898Z,83.43
2018-03-27T06:07:39.193Z,76.32
2018-03-27T06:10:07.599Z,86.57
2018-03-27T06:12:37.377Z,82.82
2018-03-27T06:15:05.627Z,82.15
2018-03-27T06:17:33.921Z,85.32
2018-03-27T06:20:02.343Z,98.00
2018-03-27T06:22:31.416Z,98.00
2018-03-27T06:24:59.861Z,94.40
2018-03-27T06:27:28.135Z,85.35
2018-03-27T06:29:56.408Z,78.45
2018-03-27T06:32:24.791Z,85.15
2018-03-27T06:34:53.076Z,85.30
2018-03-27T06:37:21.410Z,89.55
2018-03-27T06:39:49.858Z,83.97
2018-03-27T06:42:18.195Z,79.80
2018-03-27T06:44:46.572Z,76.93
2018-03-27T06:47:14.849Z,84.30
2018-03-27T06:49:43.192Z,86.78
2018-03-27T06:52:12.283Z,82.20
2018-03-27T06:54:41.334Z,92.43
2018-03-27T06:57:09.651Z,91.45
2018-03-27T06:59:38.940Z,75.35
2018-03-27T07:02:07.990Z,79.90
2018-03-27T07:04:36.328Z,72.05
2018-03-27T07:07:05.415Z,80.82
2018-03-27T07:09:34.569Z,74.35
2018-03-27T07:12:03.022Z,71.97
2018-03-27T07:14:31.344Z,68.20
2018-03-27T07:16:59.632Z,72.05
2018-03-27T07:19:28.857Z,71.15
2018-03-27T07:21:57.116Z,59.45
2018-03-27T07:24:25.435Z,73.05
2018-03-27T07:26:53.689Z,74.72
2018-03-27T07:29:21.970Z,72.20
2018-03-27T07:31:50.221Z,68.32
2018-03-27T07:34:18.717Z,73.43
2018-03-27T07:36:47.438Z,74.18
2018-03-27T07:39:15.714Z,71.75
2018-03-27T07:41:44.011Z,73.12
2018-03-27T07:44:12.417Z,71.62
2018-03-27T07:46:40.892Z,61.95
2018-03-27T07:49:11.038Z,68.07
2018-03-27T07:51:39.523Z,76.93
2018-03-27T07:54:08.466Z,68.37
2018-03-27T07:56:36.922Z,81.63
2018-03-27T07:59:05.372Z,72.07
2018-03-27T08:01:33.890Z,76.07
2018-03-27T08:04:02.543Z,72.75
2018-03-27T08:06:32.172Z,68.30
2018-03-27T08:09:00.720Z,67.75
2018-03-27T08:11:29.341Z,61.33
2018-03-27T08:13:57.868Z,60.35
2018-03-27T08:16:26.431Z,63.92
2018-03-27T08:18:54.759Z,61.70
2018-03-27T08:21:23.080Z,61.13
2018-03-27T08:23:52.598Z,64.85
2018-03-27T08:26:21.047Z,60.65
2018-03-27T08:28:49.593Z,60.25
2018-03-27T08:31:18.843Z,67.60
2018-03-27T08:33:47.289Z,59.17
2018-03-27T08:36:16.309Z,65.37
2018-03-27T08:38:46.229Z,60.38
2018-03-27T08:41:14.825Z,57.58
2018-03-27T08:43:43.542Z,55.92
2018-03-27T08:46:13.245Z,58.10
2018-03-27T08:48:42.255Z,54.78
2018-03-27T08:51:10.751Z,59.85
2018-03-27T08:53:39.254Z,54.25
2018-03-27T08:56:08.227Z,49.60
2018-03-27T08:58:36.817Z,49.78
2018-03-27T09:01:05.416Z,49.25
2018-03-27T09:03:34.693Z,48.40
2018-03-27T09:06:03.538Z,51.83
2018-03-27T09:08:33.878Z,46.03
2018-03-27T09:11:02.455Z,44.08
2018-03-27T09:13:31.237Z,48.87
2018-03-27T09:15:59.770Z,50.30
2018-03-27T09:18:28.316Z,46.45
2018-03-27T09:20:56.929Z,45.15
2018-03-27T09:23:26.439Z,50.97
2018-03-27T09:25:55.044Z,51.25
2018-03-27T09:28:23.452Z,52.28
2018-03-27T09:30:52.426Z,51.42
2018-03-27T09:33:21.407Z,49.72
2018-03-27T09:35:50.053Z,47.20
2018-03-27T09:38:18.823Z,49.22
2018-03-27T09:40:47.752Z,41.72
2018-03-27T09:43:16.236Z,42.97
2018-03-27T09:45:45.066Z,40.60
2018-03-27T09:48:13.748Z,41.45
2018-03-27T09:50:42.240Z,47.55
2018-03-27T09:53:11.163Z,44.50
2018-03-27T09:55:39.794Z,48.53
2018-03-27T09:58:08.140Z,47.25
2018-03-27T10:00:42.047Z,40.08
2018-03-27T10:03:10.558Z,39.92
2018-03-27T10:05:40.178Z,40.50
2018-03-27T10:08:09.690Z,39.45
2018-03-27T10:10:38.378Z,33.40
2018-03-27T10:13:06.952Z,33.63
2018-03-27T10:15:36.624Z,38.67
2018-03-27T10:18:06.509Z,37.47
2018-03-27T10:20:35.180Z,32.08
2018-03-27T10:23:04.940Z,40.03
2018-03-27T10:25:33.793Z,31.87
2018-03-27T10:28:02.318Z,33.67
2018-03-27T10:30:31.404Z,31.05
2018-03-27T10:33:00.182Z,33.70
2018-03-27T10:35:29.155Z,30.90
2018-03-27T10:37:57.805Z,30.77
2018-03-27T10:40:26.549Z,29.65
2018-03-27T10:42:55.591Z,29.55
2018-03-27T10:45:24.884Z,29.27
2018-03-27T10:47:54.354Z,31.17
2018-03-27T10:50:23.177Z,27.48
2018-03-27T10:52:52.090Z,25.65
2018-03-27T10:55:20.922Z,28.83
2018-03-27T10:57:51.832Z,31.05
2018-03-27T11:00:21.466Z,32.05
2018-03-27T11:02:51.733Z,29.50
2018-03-27T11:05:21.287Z,30.65
2018-03-27T11:07:50.007Z,35.70
2018-03-27T11:10:19.639Z,35.08
2018-03-27T11:12:48.154Z,35.63
2018-03-27T11:15:17.828Z,31.90
2018-03-27T11:17:48.481Z,31.15
2018-03-27T11:20:17.121Z,39.58
2018-03-27T11:22:45.671Z,32.90
2018-03-27T11:25:14.916Z,35.08
2018-03-27T11:27:43.503Z,32.40
2018-03-27T11:30:12.523Z,35.70
2018-03-27T11:32:41.681Z,33.47
2018-03-27T11:35:10.315Z,33.28
2018-03-27T11:37:39.059Z,27.85
2018-03-27T11:40:07.775Z,28.05
2018-03-27T11:42:37.095Z,26.98
2018-03-27T11:45:06.350Z,27.90
2018-03-27T11:47:36.034Z,30.67
2018-03-27T11:50:04.677Z,26.67
2018-03-27T11:52:33.260Z,29.20
2018-03-27T11:55:02.402Z,25.62
2018-03-27T11:57:31.760Z,28.27
2018-03-27T12:00:00.598Z,24.58
2018-03-27T12:02:30.673Z,31.83
2018-03-27T12:04:59.425Z,23.20
2018-03-27T12:07:28.160Z,31.65
2018-03-27T12:09:56.770Z,31.25
2018-03-27T12:12:25.409Z,29.30
2018-03-27T12:14:54.247Z,26.85
2018-03-27T12:17:22.976Z,27.48
2018-03-27T12:19:52.133Z,30.77
2018-03-27T12:22:21.552Z,24.12
2018-03-27T12:24:50.164Z,21.15
2018-03-27T12:27:18.761Z,21.55
2018-03-27T12:29:47.170Z,26.58
2018-03-27T12:32:16.557Z,27.17
2018-03-27T12:34:45.002Z,27.83
2018-03-27T12:37:13.378Z,38.63
2018-03-27T12:39:41.677Z,21.80
2018-03-27T12:42:10.528Z,21.17
2018-03-27T12:44:39.850Z,17.55
2018-03-27T12:47:09.244Z,18.12
2018-03-27T12:49:39.603Z,17.87
2018-03-27T12:52:12.180Z,21.37
2018-03-27T12:54:41.937Z,20.50
2018-03-27T12:57:11.677Z,20.08
2018-03-27T12:59:41.057Z,24.50
2018-03-27T13:02:10.011Z,23.38
2018-03-27T13:04:39.170Z,20.55
2018-03-27T13:07:09.054Z,20.15
2018-03-27T13:09:38.181Z,18.98
2018-03-27T13:12:07.700Z,18.77
2018-03-27T13:14:37.159Z,18.00
2018-03-27T13:17:07.652Z,16.77
2018-03-27T13:19:39.273Z,20.90
2018-03-27T13:22:08.841Z,18.45
2018-03-27T13:24:38.491Z,18.27
2018-03-27T13:27:07.633Z,18.80
2018-03-27T13:29:36.471Z,17.15
2018-03-27T13:32:05.884Z,17.85
2018-03-27T13:34:35.022Z,19.92
2018-03-27T13:37:04.120Z,17.62
2018-03-27T13:39:32.829Z,20.33
2018-03-27T13:42:01.184Z,21.30
2018-03-27T13:44:29.454Z,19.45
2018-03-27T13:46:58.036Z,17.55
2018-03-27T13:49:26.428Z,20.35
2018-03-27T13:51:55.003Z,22.98
2018-03-27T13:54:23.389Z,24.80
2018-03-27T13:56:51.762Z,20.08
2018-03-27T13:59:20.100Z,18.85
2018-03-27T14:01:49.443Z,20.40
2018-03-27T14:04:18.019Z,18.60
2018-03-27T14:06:46.639Z,17.58
2018-03-27T14:09:16.335Z,20.08
2018-03-27T14:11:45.140Z,21.77
2018-03-27T14:14:14.738Z,15.48
2018-03-27T14:16:43.849Z,18.98
2018-03-27T14:19:14.081Z,25.90
2018-03-27T14:21:44.156Z,16.30
2018-03-27T14:24:13.550Z,14.35
2018-03-27T14:26:42.097Z,16.45
2018-03-27T14:29:10.861Z,21.87
2018-03-27T14:31:40.433Z,17.55
2018-03-27T14:34:08.783Z,14.45
2018-03-27T14:36:37.570Z,16.55
2018-03-27T14:39:06.930Z,17.55
2018-03-27T14:41:36.298Z,14.68
2018-03-27T14:44:05.741Z,17.75
2018-03-27T14:46:35.236Z,14.10
2018-03-27T14:49:04.736Z,20.98
2018-03-27T14:51:33.327Z,13.70
2018-03-27T14:54:01.954Z,16.23
2018-03-27T14:56:30.506Z,15.60
2018-03-27T14:58:59.132Z,25.65
2018-03-27T15:01:27.651Z,16.65
2018-03-27T15:03:57.012Z,18.10
2018-03-27T15:06:27.510Z,17.43
2018-03-27T15:08:57.582Z,18.77
2018-03-27T15:11:27.385Z,20.50
2018-03-27T15:13:56.717Z,16.80
2018-03-27T15:16:25.638Z,21.83
2018-03-27T15:18:56.244Z,19.90
2018-03-27T15:21:25.493Z,19.50
2018-03-27T15:23:54.730Z,24.33
2018-03-27T15:26:24.436Z,21.73
2018-03-27T15:28:54.050Z,21.02
2018-03-27T15:31:22.932Z,18.08
2018-03-27T15:33:52.331Z,16.50
2018-03-27T15:36:20.851Z,17.55
2018-03-27T15:38:49.146Z,17.25
2018-03-27T15:41:17.408Z,20.50
2018-03-27T15:43:45.697Z,19.35
2018-03-27T15:46:13.989Z,18.52
2018-03-27T15:48:42.295Z,22.67
2018-03-27T15:51:11.411Z,21.02
2018-03-27T15:53:39.687Z,18.67
2018-03-27T15:56:07.974Z,18.85
2018-03-27T15:58:36.261Z,19.90
2018-03-27T16:01:04.562Z,21.25
2018-03-27T16:03:32.853Z,21.85
2018-03-27T16:06:02.003Z,17.92
2018-03-27T16:08:30.276Z,19.87
2018-03-27T16:10:58.551Z,18.73
2018-03-27T16:13:27.235Z,22.15
2018-03-27T16:15:55.536Z,17.02
2018-03-27T16:18:23.832Z,19.87
2018-03-27T16:20:52.898Z,22.08
2018-03-27T16:23:21.170Z,20.50
2018-03-27T16:25:49.742Z,24.73
2018-03-27T16:28:18.018Z,21.67
2018-03-27T16:30:46.287Z,29.98
2018-03-27T16:33:14.581Z,25.60
2018-03-27T16:35:42.866Z,20.48
2018-03-27T16:38:11.243Z,26.77
2018-03-27T16:40:39.528Z,25.83
2018-03-27T16:43:07.820Z,22.48
2018-03-27T16:45:36.866Z,22.65
2018-03-27T16:48:05.140Z,19.05
2018-03-27T16:50:33.404Z,23.65
2018-03-27T16:53:01.718Z,20.23
2018-03-27T16:55:30.068Z,23.70
2018-03-27T16:57:58.749Z,18.27
2018-03-27T17:00:27.071Z,16.25
2018-03-27T17:02:56.330Z,18.25
2018-03-27T17:05:24.761Z,16.33
2018-03-27T17:07:53.942Z,19.02
2018-03-27T17:10:23.304Z,15.90
2018-03-27T17:12:56.734Z,18.55
2018-03-27T17:15:25.089Z,21.58
2018-03-27T17:17:53.923Z,17.80
2018-03-27T17:20:23.014Z,17.90
2018-03-27T17:22:51.434Z,20.35
2018-03-27T17:25:20.045Z,21.87
2018-03-27T17:27:48.614Z,17.67
2018-03-27T17:30:17.815Z,21.37
2018-03-27T17:32:47.325Z,19.52
2018-03-27T17:35:16.530Z,16.05
2018-03-27T17:37:44.833Z,16.83
2018-03-27T17:40:14.645Z,21.85
2018-03-27T17:42:42.910Z,20.08
2018-03-27T17:45:12.022Z,14.52
2018-03-27T17:47:40.321Z,15.85
2018-03-27T17:50:08.684Z,15.68
2018-03-27T17:52:37.005Z,18.42
2018-03-27T17:55:06.068Z,19.00
2018-03-27T17:57:34.351Z,21.58
2018-03-27T18:00:02.717Z,23.40
2018-03-27T18:02:30.998Z,18.27
2018-03-27T18:04:59.338Z,17.55
2018-03-27T18:07:29.033Z,22.95
2018-03-27T18:09:58.218Z,21.60
2018-03-27T18:12:26.480Z,20.02
2018-03-27T18:14:54.774Z,22.27
2018-03-27T18:17:23.068Z,18.67
2018-03-27T18:19:51.389Z,22.40
2018-03-27T18:22:19.678Z,21.48
2018-03-27T18:24:47.974Z,22.95
2018-03-27T18:27:16.225Z,20.08
2018-03-27T18:29:44.569Z,22.67
2018-03-27T18:32:12.822Z,21.98
2018-03-27T18:34:41.138Z,24.90
2018-03-27T18:37:09.468Z,20.52
2018-03-27T18:39:38.524Z,21.25
2018-03-27T18:42:06.791Z,23.95
2018-03-27T18:44:35.077Z,23.27
2018-03-27T18:47:03.365Z,26.00
2018-03-27T18:49:31.682Z,23.00
2018-03-27T18:52:00.790Z,26.27
2018-03-27T18:54:30.170Z,25.52
2018-03-27T18:56:58.463Z,29.55
2018-03-27T18:59:26.864Z,27.98
2018-03-27T19:01:55.197Z,26.10
2018-03-27T19:04:24.470Z,31.40
2018-03-27T19:06:52.921Z,27.55
2018-03-27T19:09:21.414Z,28.25
2018-03-27T19:11:49.876Z,24.42
2018-03-27T19:14:18.332Z,32.30
2018-03-27T19:16:46.820Z,27.20
2018-03-27T19:19:15.131Z,32.92
2018-03-27T19:21:43.455Z,27.58
2018-03-27T19:24:11.715Z,27.98
2018-03-27T19:26:40.855Z,26.90
2018-03-27T19:29:09.145Z,26.70
2018-03-27T19:31:37.433Z,28.98
2018-03-27T19:34:05.706Z,28.08
2018-03-27T19:36:34.780Z,24.37
2018-03-27T19:39:03.138Z,30.85
2018-03-27T19:41:32.269Z,32.53
2018-03-27T19:44:01.130Z,35.33
2018-03-27T19:46:29.403Z,29.73
2018-03-27T19:48:58.058Z,32.20
2018-03-27T19:51:26.341Z,30.08
2018-03-27T19:53:54.640Z,33.97
2018-03-27T19:56:22.912Z,29.25
2018-03-27T19:58:51.440Z,33.92
2018-03-27T20:01:19.858Z,35.13
2018-03-27T20:03:48.253Z,30.35
2018-03-27T20:06:16.580Z,45.72
2018-03-27T20:08:45.626Z,36.88
2018-03-27T20:11:13.958Z,31.42
2018-03-27T20:13:43.152Z,35.38
2018-03-27T20:16:11.522Z,37.60
2018-03-27T20:18:40.631Z,36.42
2018-03-27T20:21:08.955Z,33.17
2018-03-27T20:23:37.225Z,34.70
2018-03-27T20:26:05.590Z,35.15
2018-03-27T20:28:33.927Z,34.58
2018-03-27T20:31:03.223Z,34.97
2018-03-27T20:33:31.591Z,29.15
2018-03-27T20:36:00.135Z,32.35
2018-03-27T20:38:28.472Z,35.05
2018-03-27T20:40:56.876Z,30.67
2018-03-27T20:43:25.161Z,35.35
2018-03-27T20:45:53.654Z,36.17
2018-03-27T20:48:22.110Z,31.85
2018-03-27T20:50:50.386Z,33.30
2018-03-27T20:53:18.681Z,37.95
2018-03-27T20:55:47.173Z,31.92
2018-03-27T20:58:16.989Z,29.12
2018-03-27T21:00:46.052Z,35.22
2018-03-27T21:03:14.328Z,34.28
2018-03-27T21:05:42.606Z,32.40
2018-03-27T21:08:10.866Z,33.58
2018-03-27T21:10:39.155Z,39.60
2018-03-27T21:13:07.420Z,30.73
2018-03-27T21:15:35.703Z,31.45
2018-03-27T21:18:03.987Z,32.40
2018-03-27T21:20:32.306Z,28.95
2018-03-27T21:23:01.345Z,32.08
2018-03-27T21:25:29.655Z,30.67
2018-03-27T21:27:58.728Z,30.58
2018-03-27T21:30:27.013Z,34.13
2018-03-27T21:32:55.282Z,30.73
2018-03-27T21:35:23.604Z,39.15
2018-03-27T21:37:52.688Z,32.00
2018-03-27T21:40:21.766Z,34.55
2018-03-27T21:42:50.089Z,33.28
2018-03-27T21:45:18.366Z,30.90
2018-03-27T21:47:46.676Z,38.45
2018-03-27T21:50:14.948Z,34.88
2018-03-27T21:52:43.226Z,33.88
2018-03-27T21:55:11.528Z,34.53
2018-03-27T21:57:40.573Z,29.80
2018-03-27T22:00:08.843Z,36.40
2018-03-27T22:02:37.172Z,33.50
2018-03-27T22:05:05.555Z,29.70
2018-03-27T22:07:33.885Z,28.15
2018-03-27T22:10:02.288Z,30.92
2018-03-27T22:12:30.837Z,33.50
2018-03-27T22:14:59.108Z,32.47
2018-03-27T22:17:27.398Z,29.40
2018-03-27T22:19:55.693Z,30.80
2018-03-27T22:22:23.953Z,35.60
2018-03-27T22:24:52.208Z,28.30
2018-03-27T22:27:20.643Z,29.67
2018-03-27T22:29:49.908Z,27.83
2018-03-27T22:32:18.779Z,31.42
2018-03-27T22:34:47.061Z,25.62
2018-03-27T22:37:15.541Z,25.02
2018-03-27T22:39:44.633Z,23.87
2018-03-27T22:42:12.908Z,23.75
2018-03-27T22:44:41.249Z,25.10
2018-03-27T22:47:10.526Z,26.30
2018-03-27T22:49:39.177Z,21.98
2018-03-27T22:52:07.563Z,25.50
2018-03-27T22:54:36.117Z,30.88
2018-03-27T22:57:04.443Z,24.25
2018-03-27T22:59:32.757Z,26.00
2018-03-27T23:02:01.401Z,20.77
2018-03-27T23:04:29.721Z,27.37
2018-03-27T23:06:57.994Z,22.45
2018-03-27T23:09:26.295Z,22.45
2018-03-27T23:11:54.755Z,26.15
2018-03-27T23:14:23.065Z,23.52
2018-03-27T23:16:52.255Z,25.20
2018-03-27T23:19:20.569Z,22.77
2018-03-27T23:21:49.715Z,21.90
2018-03-27T23:24:18.203Z,24.55
2018-03-27T23:26:46.477Z,26.42
2018-03-27T23:29:14.783Z,24.67
2018-03-27T23:31:44.761Z,19.42
2018-03-27T23:34:13.043Z,17.87
2018-03-27T23:36:42.096Z,19.85
2018-03-27T23:39:10.384Z,20.50
2018-03-27T23:41:38.679Z,20.77
2018-03-27T23:44:07.818Z,25.30
2018-03-27T23:46:36.876Z,23.05
2018-03-27T23:49:05.146Z,18.62
2018-03-27T23:51:33.413Z,22.15
2018-03-27T23:54:01.746Z,20.75
2018-03-27T23:56:30.789Z,20.60
2018-03-27T23:58:59.049Z,26.37
